Time;durP1;ratioP1;P1;durP2;ratioP2;P2;SDS_P1;SDS_P2;PMS_P1;PMS_P2;Temp;Humidity;BMP_temperature;BMP_pressure;BME280_temperature;BME280_humidity;BME280_pressure;Samples;Min_cycle;Max_cycle;Signal;HPM_P1;HPM_P2
2021/01/10 00:00:50;;;;;;;22.4;10.7;;;;;;;-4.11;82.00391;95554.47;;;;
2021/01/10 00:01:51;;;;;;;17.4;9.75;;;;;;;-4.33;82.15918;95553.81;;;;
2021/01/10 00:02:51;;;;;;;17.4;9.75;;;;;;;-4.33;82.15918;95553.81;;;;
2021/01/10 00:03:54;;;;;;;17.4;9.75;;;;;;;-4.33;82.15918;95553.81;;;;
2021/01/10 00:04:55;;;;;;;17.4;9.75;;;;;;;-4.33;82.15918;95553.81;;;;
2021/01/10 00:05:55;;;;;;;17.4;9.75;;;;;;;-4.33;82.15918;95553.81;;;;
2021/01/10 00:06:56;;;;;;;17.4;9.75;;;;;;;-4.33;82.15918;95553.81;;;;
2021/01/10 00:07:57;;;;;;;17.4;9.75;;;;;;;-4.33;82.15918;95553.81;;;;
2021/01/10 00:08:58;;;;;;;17.4;9.75;;;;;;;-4.33;82.15918;95553.81;;;;
2021/01/10 00:09:58;;;;;;;17.4;9.75;;;;;;;-4.33;82.15918;95553.81;;;;
2021/01/10 00:10:59;;;;;;;17.4;9.75;;;;;;;-4.33;82.15918;95553.81;;;;
2021/01/10 00:11:59;;;;;;;17.4;9.75;;;;;;;-4.33;82.15918;95553.81;;;;
2021/01/10 00:13:00;;;;;;;18.5;10.45;;;;;;;-4.55;82.10547;95551.53;;;;
2021/01/10 00:14:02;;;;;;;18.5;10.45;;;;;;;-4.55;82.10547;95551.53;;;;
2021/01/10 00:15:02;;;;;;;18.5;10.45;;;;;;;-4.55;82.10547;95551.53;;;;
2021/01/10 00:16:05;;;;;;;18.5;10.45;;;;;;;-4.55;82.10547;95551.53;;;;
2021/01/10 00:17:06;;;;;;;18.5;10.45;;;;;;;-4.55;82.10547;95551.53;;;;
2021/01/10 00:18:06;;;;;;;18.5;10.45;;;;;;;-4.55;82.10547;95551.53;;;;
2021/01/10 00:19:06;;;;;;;18.5;10.45;;;;;;;-4.55;82.10547;95551.53;;;;
2021/01/10 00:20:07;;;;;;;18.5;10.45;;;;;;;-4.55;82.10547;95551.53;;;;
2021/01/10 00:21:09;;;;;;;18.5;10.45;;;;;;;-4.55;82.10547;95551.53;;;;
2021/01/10 00:22:09;;;;;;;18.5;10.45;;;;;;;-4.55;82.10547;95551.53;;;;
2021/01/10 00:23:11;;;;;;;18.8;9.6;;;;;;;-4.82;82.19824;95549.96;;;;
2021/01/10 00:24:12;;;;;;;18.8;9.6;;;;;;;-4.82;82.19824;95549.96;;;;
2021/01/10 00:25:12;;;;;;;18.8;9.6;;;;;;;-4.82;82.19824;95549.96;;;;
2021/01/10 00:26:13;;;;;;;18.8;9.6;;;;;;;-4.82;82.19824;95549.96;;;;
2021/01/10 00:27:13;;;;;;;18.8;9.6;;;;;;;-4.82;82.19824;95549.96;;;;
2021/01/10 00:28:15;;;;;;;18.8;9.6;;;;;;;-4.82;82.19824;95549.96;;;;
2021/01/10 00:29:16;;;;;;;18.8;9.6;;;;;;;-4.82;82.19824;95549.96;;;;
2021/01/10 00:30:17;;;;;;;18.8;9.6;;;;;;;-4.82;82.19824;95549.96;;;;
2021/01/10 00:31:19;;;;;;;18.8;9.6;;;;;;;-4.82;82.19824;95549.96;;;;
2021/01/10 00:32:26;;;;;;;18.8;9.6;;;;;;;-4.82;82.19824;95549.96;;;;
2021/01/10 00:33:27;;;;;;;18.8;9.6;;;;;;;-4.82;82.19824;95549.96;;;;
2021/01/10 00:34:27;;;;;;;19.2;9.749999;;;;;;;-5.09;82.13477;95548.07;;;;
2021/01/10 00:35:28;;;;;;;19.2;9.749999;;;;;;;-5.09;82.13477;95548.07;;;;
2021/01/10 00:36:29;;;;;;;19.2;9.749999;;;;;;;-5.09;82.13477;95548.07;;;;
2021/01/10 00:37:33;;;;;;;19.2;9.749999;;;;;;;-5.09;82.13477;95548.07;;;;
2021/01/10 00:38:34;;;;;;;19.2;9.749999;;;;;;;-5.09;82.13477;95548.07;;;;
2021/01/10 00:39:35;;;;;;;19.2;9.749999;;;;;;;-5.09;82.13477;95548.07;;;;
2021/01/10 00:40:35;;;;;;;19.2;9.749999;;;;;;;-5.09;82.13477;95548.07;;;;
2021/01/10 00:41:36;;;;;;;19.2;9.749999;;;;;;;-5.09;82.13477;95548.07;;;;
2021/01/10 00:42:38;;;;;;;19.2;9.749999;;;;;;;-5.09;82.13477;95548.07;;;;
2021/01/10 00:43:39;;;;;;;19.2;9.749999;;;;;;;-5.09;82.13477;95548.07;;;;
2021/01/10 00:44:40;;;;;;;21.45;10;;;;;;;-5.36;82.12207;95557.48;;;;
2021/01/10 00:45:41;;;;;;;21.45;10;;;;;;;-5.36;82.12207;95557.48;;;;
2021/01/10 00:46:42;;;;;;;21.45;10;;;;;;;-5.36;82.12207;95557.48;;;;
2021/01/10 00:47:42;;;;;;;21.45;10;;;;;;;-5.36;82.12207;95557.48;;;;
2021/01/10 00:48:44;;;;;;;21.45;10;;;;;;;-5.36;82.12207;95557.48;;;;
2021/01/10 00:49:44;;;;;;;21.45;10;;;;;;;-5.36;82.12207;95557.48;;;;
2021/01/10 00:50:46;;;;;;;21.45;10;;;;;;;-5.36;82.12207;95557.48;;;;
2021/01/10 00:51:46;;;;;;;21.45;10;;;;;;;-5.36;82.12207;95557.48;;;;
2021/01/10 00:52:49;;;;;;;21.45;10;;;;;;;-5.36;82.12207;95557.48;;;;
2021/01/10 00:53:50;;;;;;;21.45;10;;;;;;;-5.36;82.12207;95557.48;;;;
2021/01/10 00:54:50;;;;;;;21.45;10;;;;;;;-5.36;82.12207;95557.48;;;;
2021/01/10 00:55:51;;;;;;;22.85;11.15;;;;;;;-5.59;82.16016;95544.14;;;;
2021/01/10 00:56:51;;;;;;;22.85;11.15;;;;;;;-5.59;82.16016;95544.14;;;;
2021/01/10 00:57:52;;;;;;;22.85;11.15;;;;;;;-5.59;82.16016;95544.14;;;;
2021/01/10 00:58:52;;;;;;;22.85;11.15;;;;;;;-5.59;82.16016;95544.14;;;;
2021/01/10 00:59:53;;;;;;;22.85;11.15;;;;;;;-5.59;82.16016;95544.14;;;;
2021/01/10 01:00:53;;;;;;;22.85;11.15;;;;;;;-5.59;82.16016;95544.14;;;;
2021/01/10 01:01:54;;;;;;;22.85;11.15;;;;;;;-5.59;82.16016;95544.14;;;;
2021/01/10 01:02:54;;;;;;;22.85;11.15;;;;;;;-5.59;82.16016;95544.14;;;;
2021/01/10 01:03:55;;;;;;;22.85;11.15;;;;;;;-5.59;82.16016;95544.14;;;;
2021/01/10 01:04:55;;;;;;;22.85;11.15;;;;;;;-5.59;82.16016;95544.14;;;;
2021/01/10 01:05:56;;;;;;;23.85;11.35;;;;;;;-5.72;82.05469;95550.51;;;;
2021/01/10 01:06:56;;;;;;;23.85;11.35;;;;;;;-5.72;82.05469;95550.51;;;;
2021/01/10 01:07:56;;;;;;;23.85;11.35;;;;;;;-5.72;82.05469;95550.51;;;;
2021/01/10 01:08:57;;;;;;;23.85;11.35;;;;;;;-5.72;82.05469;95550.51;;;;
2021/01/10 01:09:57;;;;;;;23.85;11.35;;;;;;;-5.72;82.05469;95550.51;;;;
2021/01/10 01:10:58;;;;;;;23.85;11.35;;;;;;;-5.72;82.05469;95550.51;;;;
2021/01/10 01:11:59;;;;;;;23.85;11.35;;;;;;;-5.72;82.05469;95550.51;;;;
2021/01/10 01:13:02;;;;;;;23.85;11.35;;;;;;;-5.72;82.05469;95550.51;;;;
2021/01/10 01:14:03;;;;;;;23.85;11.35;;;;;;;-5.72;82.05469;95550.51;;;;
2021/01/10 01:15:05;;;;;;;23.85;11.35;;;;;;;-5.72;82.05469;95550.51;;;;
2021/01/10 01:16:07;;;;;;;23.85;11.35;;;;;;;-5.72;82.05469;95550.51;;;;
2021/01/10 01:17:08;;;;;;;23.2;11.3;;;;;;;-5.88;81.81738;95546.67;;;;
2021/01/10 01:18:08;;;;;;;23.2;11.3;;;;;;;-5.88;81.81738;95546.67;;;;
2021/01/10 01:19:09;;;;;;;23.2;11.3;;;;;;;-5.88;81.81738;95546.67;;;;
2021/01/10 01:20:10;;;;;;;23.2;11.3;;;;;;;-5.88;81.81738;95546.67;;;;
2021/01/10 01:21:11;;;;;;;23.2;11.3;;;;;;;-5.88;81.81738;95546.67;;;;
2021/01/10 01:22:14;;;;;;;23.2;11.3;;;;;;;-5.88;81.81738;95546.67;;;;
2021/01/10 01:23:14;;;;;;;23.2;11.3;;;;;;;-5.88;81.81738;95546.67;;;;
2021/01/10 01:24:15;;;;;;;23.2;11.3;;;;;;;-5.88;81.81738;95546.67;;;;
2021/01/10 01:25:16;;;;;;;23.2;11.3;;;;;;;-5.88;81.81738;95546.67;;;;
2021/01/10 01:26:16;;;;;;;23.2;11.3;;;;;;;-5.88;81.81738;95546.67;;;;
2021/01/10 01:27:18;;;;;;;24.05;11.75;;;;;;;-6.04;81.67188;95553.77;;;;
2021/01/10 01:28:20;;;;;;;24.05;11.75;;;;;;;-6.04;81.67188;95553.77;;;;
2021/01/10 01:29:20;;;;;;;24.05;11.75;;;;;;;-6.04;81.67188;95553.77;;;;
2021/01/10 01:30:21;;;;;;;24.05;11.75;;;;;;;-6.04;81.67188;95553.77;;;;
2021/01/10 01:31:22;;;;;;;24.05;11.75;;;;;;;-6.04;81.67188;95553.77;;;;
2021/01/10 01:32:24;;;;;;;24.05;11.75;;;;;;;-6.04;81.67188;95553.77;;;;
2021/01/10 01:33:24;;;;;;;24.05;11.75;;;;;;;-6.04;81.67188;95553.77;;;;
2021/01/10 01:34:24;;;;;;;24.05;11.75;;;;;;;-6.04;81.67188;95553.77;;;;
2021/01/10 01:35:25;;;;;;;24.05;11.75;;;;;;;-6.04;81.67188;95553.77;;;;
2021/01/10 01:36:27;;;;;;;24.05;11.75;;;;;;;-6.04;81.67188;95553.77;;;;
2021/01/10 01:37:27;;;;;;;24.05;11.75;;;;;;;-6.04;81.67188;95553.77;;;;
2021/01/10 01:38:28;;;;;;;24.85;12.1;;;;;;;-6.17;81.76953;95560.11;;;;
2021/01/10 01:39:28;;;;;;;24.85;12.1;;;;;;;-6.17;81.76953;95560.11;;;;
2021/01/10 01:40:29;;;;;;;24.85;12.1;;;;;;;-6.17;81.76953;95560.11;;;;
2021/01/10 01:41:29;;;;;;;24.85;12.1;;;;;;;-6.17;81.76953;95560.11;;;;
2021/01/10 01:42:35;;;;;;;24.85;12.1;;;;;;;-6.17;81.76953;95560.11;;;;
2021/01/10 01:43:37;;;;;;;24.85;12.1;;;;;;;-6.17;81.76953;95560.11;;;;
2021/01/10 01:44:39;;;;;;;24.85;12.1;;;;;;;-6.17;81.76953;95560.11;;;;
2021/01/10 01:45:39;;;;;;;24.85;12.1;;;;;;;-6.17;81.76953;95560.11;;;;
2021/01/10 01:46:40;;;;;;;24.85;12.1;;;;;;;-6.17;81.76953;95560.11;;;;
2021/01/10 01:47:41;;;;;;;24.85;12.1;;;;;;;-6.17;81.76953;95560.11;;;;
2021/01/10 01:48:41;;;;;;;25.75;13.1;;;;;;;-6.26;81.61914;95567.95;;;;
2021/01/10 01:49:42;;;;;;;25.75;13.1;;;;;;;-6.26;81.61914;95567.95;;;;
2021/01/10 01:50:42;;;;;;;25.75;13.1;;;;;;;-6.26;81.61914;95567.95;;;;
2021/01/10 01:51:43;;;;;;;25.75;13.1;;;;;;;-6.26;81.61914;95567.95;;;;
2021/01/10 01:52:45;;;;;;;25.75;13.1;;;;;;;-6.26;81.61914;95567.95;;;;
2021/01/10 01:53:45;;;;;;;25.75;13.1;;;;;;;-6.26;81.61914;95567.95;;;;
2021/01/10 01:54:46;;;;;;;25.75;13.1;;;;;;;-6.26;81.61914;95567.95;;;;
2021/01/10 01:55:47;;;;;;;25.75;13.1;;;;;;;-6.26;81.61914;95567.95;;;;
2021/01/10 01:56:52;;;;;;;25.75;13.1;;;;;;;-6.26;81.61914;95567.95;;;;
2021/01/10 01:57:52;;;;;;;25.75;13.1;;;;;;;-6.26;81.61914;95567.95;;;;
2021/01/10 01:58:53;;;;;;;25.75;13.1;;;;;;;-6.26;81.61914;95567.95;;;;
2021/01/10 02:00:00;;;;;;;36.5;21.8;;;;;;;-6.32;81.9375;95573.66;;;;
2021/01/10 02:01:00;;;;;;;36.5;21.8;;;;;;;-6.32;81.9375;95573.66;;;;
2021/01/10 02:02:01;;;;;;;36.5;21.8;;;;;;;-6.32;81.9375;95573.66;;;;
2021/01/10 02:03:04;;;;;;;36.5;21.8;;;;;;;-6.32;81.9375;95573.66;;;;
2021/01/10 02:04:05;;;;;;;36.5;21.8;;;;;;;-6.32;81.9375;95573.66;;;;
2021/01/10 02:05:11;;;;;;;36.5;21.8;;;;;;;-6.32;81.9375;95573.66;;;;
2021/01/10 02:06:16;;;;;;;36.5;21.8;;;;;;;-6.32;81.9375;95573.66;;;;
2021/01/10 02:07:19;;;;;;;36.5;21.8;;;;;;;-6.32;81.9375;95573.66;;;;
2021/01/10 02:08:25;;;;;;;36.5;21.8;;;;;;;-6.32;81.9375;95573.66;;;;
2021/01/10 02:09:30;;;;;;;36.5;21.8;;;;;;;-6.32;81.9375;95573.66;;;;
2021/01/10 02:10:38;;;;;;;37.05;21.2;;;;;;;-6.36;82.1123;95575.33;;;;
2021/01/10 02:11:41;;;;;;;37.05;21.2;;;;;;;-6.36;82.1123;95575.33;;;;
2021/01/10 02:12:45;;;;;;;37.05;21.2;;;;;;;-6.36;82.1123;95575.33;;;;
2021/01/10 02:13:50;;;;;;;37.05;21.2;;;;;;;-6.36;82.1123;95575.33;;;;
2021/01/10 02:14:52;;;;;;;37.05;21.2;;;;;;;-6.36;82.1123;95575.33;;;;
2021/01/10 02:15:58;;;;;;;37.05;21.2;;;;;;;-6.36;82.1123;95575.33;;;;
2021/01/10 02:17:01;;;;;;;37.05;21.2;;;;;;;-6.36;82.1123;95575.33;;;;
2021/01/10 02:18:02;;;;;;;37.05;21.2;;;;;;;-6.36;82.1123;95575.33;;;;
2021/01/10 02:19:05;;;;;;;37.05;21.2;;;;;;;-6.36;82.1123;95575.33;;;;
2021/01/10 02:20:17;;;;;;;37.05;21.2;;;;;;;-6.36;82.1123;95575.33;;;;
2021/01/10 02:21:26;;;;;;;51.39999;27.4;;;;;;;-6.24;82.69043;95572.09;;;;
2021/01/10 02:22:27;;;;;;;51.39999;27.4;;;;;;;-6.24;82.69043;95572.09;;;;
2021/01/10 02:23:33;;;;;;;51.39999;27.4;;;;;;;-6.24;82.69043;95572.09;;;;
2021/01/10 02:24:34;;;;;;;51.39999;27.4;;;;;;;-6.24;82.69043;95572.09;;;;
2021/01/10 02:25:35;;;;;;;51.39999;27.4;;;;;;;-6.24;82.69043;95572.09;;;;
2021/01/10 02:26:37;;;;;;;51.39999;27.4;;;;;;;-6.24;82.69043;95572.09;;;;
2021/01/10 02:27:39;;;;;;;51.39999;27.4;;;;;;;-6.24;82.69043;95572.09;;;;
2021/01/10 02:28:41;;;;;;;51.39999;27.4;;;;;;;-6.24;82.69043;95572.09;;;;
2021/01/10 02:29:42;;;;;;;51.39999;27.4;;;;;;;-6.24;82.69043;95572.09;;;;
2021/01/10 02:30:43;;;;;;;51.39999;27.4;;;;;;;-6.24;82.69043;95572.09;;;;
2021/01/10 02:31:44;;;;;;;54.9;21.3;;;;;;;-5.91;83.05469;95578.91;;;;
2021/01/10 02:32:47;;;;;;;54.9;21.3;;;;;;;-5.91;83.05469;95578.91;;;;
2021/01/10 02:33:52;;;;;;;54.9;21.3;;;;;;;-5.91;83.05469;95578.91;;;;
2021/01/10 02:34:55;;;;;;;54.9;21.3;;;;;;;-5.91;83.05469;95578.91;;;;
2021/01/10 02:35:58;;;;;;;54.9;21.3;;;;;;;-5.91;83.05469;95578.91;;;;
2021/01/10 02:37:05;;;;;;;54.9;21.3;;;;;;;-5.91;83.05469;95578.91;;;;
2021/01/10 02:38:15;;;;;;;54.9;21.3;;;;;;;-5.91;83.05469;95578.91;;;;
2021/01/10 02:39:32;;;;;;;54.9;21.3;;;;;;;-5.91;83.05469;95578.91;;;;
2021/01/10 02:40:40;;;;;;;54.9;21.3;;;;;;;-5.91;83.05469;95578.91;;;;
2021/01/10 02:41:50;;;;;;;54.9;21.3;;;;;;;-5.91;83.05469;95578.91;;;;
2021/01/10 02:42:55;;;;;;;54.59999;21.1;;;;;;;-5.6;82.78516;95577.09;;;;
2021/01/10 02:44:01;;;;;;;54.59999;21.1;;;;;;;-5.6;82.78516;95577.09;;;;
2021/01/10 02:45:11;;;;;;;54.59999;21.1;;;;;;;-5.6;82.78516;95577.09;;;;
2021/01/10 02:46:16;;;;;;;54.59999;21.1;;;;;;;-5.6;82.78516;95577.09;;;;
2021/01/10 02:47:18;;;;;;;54.59999;21.1;;;;;;;-5.6;82.78516;95577.09;;;;
2021/01/10 02:48:19;;;;;;;54.59999;21.1;;;;;;;-5.6;82.78516;95577.09;;;;
2021/01/10 02:49:20;;;;;;;54.59999;21.1;;;;;;;-5.6;82.78516;95577.09;;;;
2021/01/10 02:50:21;;;;;;;54.59999;21.1;;;;;;;-5.6;82.78516;95577.09;;;;
2021/01/10 02:51:22;;;;;;;54.59999;21.1;;;;;;;-5.6;82.78516;95577.09;;;;
2021/01/10 02:52:22;;;;;;;54.59999;21.1;;;;;;;-5.6;82.78516;95577.09;;;;
2021/01/10 02:53:23;;;;;;;40.45;17.7;;;;;;;-5.36;82.56445;95568;;;;
2021/01/10 02:54:24;;;;;;;40.45;17.7;;;;;;;-5.36;82.56445;95568;;;;
2021/01/10 02:55:24;;;;;;;40.45;17.7;;;;;;;-5.36;82.56445;95568;;;;
2021/01/10 02:56:25;;;;;;;40.45;17.7;;;;;;;-5.36;82.56445;95568;;;;
2021/01/10 02:57:28;;;;;;;40.45;17.7;;;;;;;-5.36;82.56445;95568;;;;
2021/01/10 02:58:35;;;;;;;40.45;17.7;;;;;;;-5.36;82.56445;95568;;;;
2021/01/10 02:59:39;;;;;;;40.45;17.7;;;;;;;-5.36;82.56445;95568;;;;
2021/01/10 03:00:42;;;;;;;40.45;17.7;;;;;;;-5.36;82.56445;95568;;;;
2021/01/10 03:01:43;;;;;;;40.45;17.7;;;;;;;-5.36;82.56445;95568;;;;
2021/01/10 03:02:47;;;;;;;40.45;17.7;;;;;;;-5.36;82.56445;95568;;;;
2021/01/10 03:03:48;;;;;;;45.8;18.65;;;;;;;-5.28;82.29297;95573.41;;;;
2021/01/10 03:04:49;;;;;;;45.8;18.65;;;;;;;-5.28;82.29297;95573.41;;;;
2021/01/10 03:05:51;;;;;;;45.8;18.65;;;;;;;-5.28;82.29297;95573.41;;;;
2021/01/10 03:06:54;;;;;;;45.8;18.65;;;;;;;-5.28;82.29297;95573.41;;;;
2021/01/10 03:07:55;;;;;;;45.8;18.65;;;;;;;-5.28;82.29297;95573.41;;;;
2021/01/10 03:08:56;;;;;;;45.8;18.65;;;;;;;-5.28;82.29297;95573.41;;;;
2021/01/10 03:09:57;;;;;;;45.8;18.65;;;;;;;-5.28;82.29297;95573.41;;;;
2021/01/10 03:10:58;;;;;;;45.8;18.65;;;;;;;-5.28;82.29297;95573.41;;;;
2021/01/10 03:11:59;;;;;;;45.8;18.65;;;;;;;-5.28;82.29297;95573.41;;;;
2021/01/10 03:13:13;;;;;;;45.8;18.65;;;;;;;-5.28;82.29297;95573.41;;;;
2021/01/10 03:14:14;;;;;;;52.44999;23.8;;;;;;;-5.33;82.36621;95567.72;;;;
2021/01/10 03:15:15;;;;;;;52.44999;23.8;;;;;;;-5.33;82.36621;95567.72;;;;
2021/01/10 03:16:16;;;;;;;52.44999;23.8;;;;;;;-5.33;82.36621;95567.72;;;;
2021/01/10 03:17:17;;;;;;;52.44999;23.8;;;;;;;-5.33;82.36621;95567.72;;;;
2021/01/10 03:18:24;;;;;;;52.44999;23.8;;;;;;;-5.33;82.36621;95567.72;;;;
2021/01/10 03:19:25;;;;;;;52.44999;23.8;;;;;;;-5.33;82.36621;95567.72;;;;
2021/01/10 03:20:26;;;;;;;52.44999;23.8;;;;;;;-5.33;82.36621;95567.72;;;;
2021/01/10 03:21:26;;;;;;;52.44999;23.8;;;;;;;-5.33;82.36621;95567.72;;;;
2021/01/10 03:22:27;;;;;;;52.44999;23.8;;;;;;;-5.33;82.36621;95567.72;;;;
2021/01/10 03:23:27;;;;;;;52.44999;23.8;;;;;;;-5.33;82.36621;95567.72;;;;
2021/01/10 03:24:28;;;;;;;52.44999;23.8;;;;;;;-5.33;82.36621;95567.72;;;;
2021/01/10 03:25:28;;;;;;;45.7;17.2;;;;;;;-5.35;82.68945;95567.02;;;;
2021/01/10 03:26:29;;;;;;;45.7;17.2;;;;;;;-5.35;82.68945;95567.02;;;;
2021/01/10 03:27:30;;;;;;;45.7;17.2;;;;;;;-5.35;82.68945;95567.02;;;;
2021/01/10 03:28:31;;;;;;;45.7;17.2;;;;;;;-5.35;82.68945;95567.02;;;;
2021/01/10 03:29:32;;;;;;;45.7;17.2;;;;;;;-5.35;82.68945;95567.02;;;;
2021/01/10 03:30:32;;;;;;;45.7;17.2;;;;;;;-5.35;82.68945;95567.02;;;;
2021/01/10 03:31:33;;;;;;;45.7;17.2;;;;;;;-5.35;82.68945;95567.02;;;;
2021/01/10 03:32:34;;;;;;;45.7;17.2;;;;;;;-5.35;82.68945;95567.02;;;;
2021/01/10 03:33:35;;;;;;;45.7;17.2;;;;;;;-5.35;82.68945;95567.02;;;;
2021/01/10 03:34:35;;;;;;;45.7;17.2;;;;;;;-5.35;82.68945;95567.02;;;;
2021/01/10 03:35:37;;;;;;;52.95;17.35;;;;;;;-5.4;82.58789;95555.65;;;;
2021/01/10 03:36:37;;;;;;;52.95;17.35;;;;;;;-5.4;82.58789;95555.65;;;;
2021/01/10 03:37:38;;;;;;;52.95;17.35;;;;;;;-5.4;82.58789;95555.65;;;;
2021/01/10 03:38:39;;;;;;;52.95;17.35;;;;;;;-5.4;82.58789;95555.65;;;;
2021/01/10 03:39:40;;;;;;;52.95;17.35;;;;;;;-5.4;82.58789;95555.65;;;;
2021/01/10 03:40:40;;;;;;;52.95;17.35;;;;;;;-5.4;82.58789;95555.65;;;;
2021/01/10 03:41:41;;;;;;;52.95;17.35;;;;;;;-5.4;82.58789;95555.65;;;;
2021/01/10 03:42:41;;;;;;;52.95;17.35;;;;;;;-5.4;82.58789;95555.65;;;;
2021/01/10 03:43:42;;;;;;;52.95;17.35;;;;;;;-5.4;82.58789;95555.65;;;;
2021/01/10 03:44:43;;;;;;;52.95;17.35;;;;;;;-5.4;82.58789;95555.65;;;;
2021/01/10 03:45:43;;;;;;;52.95;17.35;;;;;;;-5.4;82.58789;95555.65;;;;
2021/01/10 03:46:44;;;;;;;38.7;16.1;;;;;;;-5.48;82.59375;95557.62;;;;
2021/01/10 03:47:44;;;;;;;38.7;16.1;;;;;;;-5.48;82.59375;95557.62;;;;
2021/01/10 03:48:45;;;;;;;38.7;16.1;;;;;;;-5.48;82.59375;95557.62;;;;
2021/01/10 03:49:45;;;;;;;38.7;16.1;;;;;;;-5.48;82.59375;95557.62;;;;
2021/01/10 03:50:46;;;;;;;38.7;16.1;;;;;;;-5.48;82.59375;95557.62;;;;
2021/01/10 03:51:46;;;;;;;38.7;16.1;;;;;;;-5.48;82.59375;95557.62;;;;
2021/01/10 03:52:47;;;;;;;38.7;16.1;;;;;;;-5.48;82.59375;95557.62;;;;
2021/01/10 03:53:48;;;;;;;38.7;16.1;;;;;;;-5.48;82.59375;95557.62;;;;
2021/01/10 03:54:48;;;;;;;38.7;16.1;;;;;;;-5.48;82.59375;95557.62;;;;
2021/01/10 03:55:49;;;;;;;38.7;16.1;;;;;;;-5.48;82.59375;95557.62;;;;
2021/01/10 03:56:49;;;;;;;38.1;16.85;;;;;;;-5.48;82.46875;95550.62;;;;
2021/01/10 03:57:50;;;;;;;38.1;16.85;;;;;;;-5.48;82.46875;95550.62;;;;
2021/01/10 03:58:50;;;;;;;38.1;16.85;;;;;;;-5.48;82.46875;95550.62;;;;
2021/01/10 03:59:51;;;;;;;38.1;16.85;;;;;;;-5.48;82.46875;95550.62;;;;
2021/01/10 04:00:51;;;;;;;38.1;16.85;;;;;;;-5.48;82.46875;95550.62;;;;
2021/01/10 04:01:52;;;;;;;38.1;16.85;;;;;;;-5.48;82.46875;95550.62;;;;
2021/01/10 04:02:52;;;;;;;38.1;16.85;;;;;;;-5.48;82.46875;95550.62;;;;
2021/01/10 04:03:53;;;;;;;38.1;16.85;;;;;;;-5.48;82.46875;95550.62;;;;
2021/01/10 04:04:53;;;;;;;38.1;16.85;;;;;;;-5.48;82.46875;95550.62;;;;
2021/01/10 04:05:54;;;;;;;38.1;16.85;;;;;;;-5.48;82.46875;95550.62;;;;
2021/01/10 04:06:54;;;;;;;38.1;16.85;;;;;;;-5.48;82.46875;95550.62;;;;
2021/01/10 04:07:55;;;;;;;42.3;17.4;;;;;;;-5.55;82.28125;95554.33;;;;
2021/01/10 04:08:55;;;;;;;42.3;17.4;;;;;;;-5.55;82.28125;95554.33;;;;
2021/01/10 04:09:56;;;;;;;42.3;17.4;;;;;;;-5.55;82.28125;95554.33;;;;
2021/01/10 04:10:56;;;;;;;42.3;17.4;;;;;;;-5.55;82.28125;95554.33;;;;
2021/01/10 04:11:57;;;;;;;42.3;17.4;;;;;;;-5.55;82.28125;95554.33;;;;
2021/01/10 04:12:57;;;;;;;42.3;17.4;;;;;;;-5.55;82.28125;95554.33;;;;
2021/01/10 04:13:58;;;;;;;42.3;17.4;;;;;;;-5.55;82.28125;95554.33;;;;
2021/01/10 04:14:58;;;;;;;42.3;17.4;;;;;;;-5.55;82.28125;95554.33;;;;
2021/01/10 04:15:59;;;;;;;42.3;17.4;;;;;;;-5.55;82.28125;95554.33;;;;
2021/01/10 04:16:59;;;;;;;42.3;17.4;;;;;;;-5.55;82.28125;95554.33;;;;
2021/01/10 04:18:00;;;;;;;42.05001;17.55;;;;;;;-5.75;82.72461;95558.67;;;;
2021/01/10 04:19:00;;;;;;;42.05001;17.55;;;;;;;-5.75;82.72461;95558.67;;;;
2021/01/10 04:20:01;;;;;;;42.05001;17.55;;;;;;;-5.75;82.72461;95558.67;;;;
2021/01/10 04:21:03;;;;;;;42.05001;17.55;;;;;;;-5.75;82.72461;95558.67;;;;
2021/01/10 04:22:03;;;;;;;42.05001;17.55;;;;;;;-5.75;82.72461;95558.67;;;;
2021/01/10 04:23:04;;;;;;;42.05001;17.55;;;;;;;-5.75;82.72461;95558.67;;;;
2021/01/10 04:24:04;;;;;;;42.05001;17.55;;;;;;;-5.75;82.72461;95558.67;;;;
2021/01/10 04:25:05;;;;;;;42.05001;17.55;;;;;;;-5.75;82.72461;95558.67;;;;
2021/01/10 04:26:06;;;;;;;42.05001;17.55;;;;;;;-5.75;82.72461;95558.67;;;;
2021/01/10 04:27:07;;;;;;;42.05001;17.55;;;;;;;-5.75;82.72461;95558.67;;;;
2021/01/10 04:28:07;;;;;;;42.05001;17.55;;;;;;;-5.75;82.72461;95558.67;;;;
2021/01/10 04:29:08;;;;;;;43.45;17.6;;;;;;;-5.97;82.86719;95547.87;;;;
2021/01/10 04:30:08;;;;;;;43.45;17.6;;;;;;;-5.97;82.86719;95547.87;;;;
2021/01/10 04:31:10;;;;;;;43.45;17.6;;;;;;;-5.97;82.86719;95547.87;;;;
2021/01/10 04:32:10;;;;;;;43.45;17.6;;;;;;;-5.97;82.86719;95547.87;;;;
2021/01/10 04:33:11;;;;;;;43.45;17.6;;;;;;;-5.97;82.86719;95547.87;;;;
2021/01/10 04:34:11;;;;;;;43.45;17.6;;;;;;;-5.97;82.86719;95547.87;;;;
2021/01/10 04:35:13;;;;;;;43.45;17.6;;;;;;;-5.97;82.86719;95547.87;;;;
2021/01/10 04:36:14;;;;;;;43.45;17.6;;;;;;;-5.97;82.86719;95547.87;;;;
2021/01/10 04:37:14;;;;;;;43.45;17.6;;;;;;;-5.97;82.86719;95547.87;;;;
2021/01/10 04:38:15;;;;;;;43.45;17.6;;;;;;;-5.97;82.86719;95547.87;;;;
2021/01/10 04:39:16;;;;;;;43.45;17.6;;;;;;;-5.97;82.86719;95547.87;;;;
2021/01/10 04:40:16;;;;;;;45.65;16.8;;;;;;;-6.19;83.15137;95551.56;;;;
2021/01/10 04:41:17;;;;;;;45.65;16.8;;;;;;;-6.19;83.15137;95551.56;;;;
2021/01/10 04:42:18;;;;;;;45.65;16.8;;;;;;;-6.19;83.15137;95551.56;;;;
2021/01/10 04:43:18;;;;;;;45.65;16.8;;;;;;;-6.19;83.15137;95551.56;;;;
2021/01/10 04:44:19;;;;;;;45.65;16.8;;;;;;;-6.19;83.15137;95551.56;;;;
2021/01/10 04:45:20;;;;;;;45.65;16.8;;;;;;;-6.19;83.15137;95551.56;;;;
2021/01/10 04:46:21;;;;;;;45.65;16.8;;;;;;;-6.19;83.15137;95551.56;;;;
2021/01/10 04:47:22;;;;;;;45.65;16.8;;;;;;;-6.19;83.15137;95551.56;;;;
2021/01/10 04:48:23;;;;;;;45.65;16.8;;;;;;;-6.19;83.15137;95551.56;;;;
2021/01/10 04:49:24;;;;;;;45.65;16.8;;;;;;;-6.19;83.15137;95551.56;;;;
2021/01/10 04:50:25;;;;;;;49.95;17.25;;;;;;;-6.27;83.43164;95555.76;;;;
2021/01/10 04:51:26;;;;;;;49.95;17.25;;;;;;;-6.27;83.43164;95555.76;;;;
2021/01/10 04:52:27;;;;;;;49.95;17.25;;;;;;;-6.27;83.43164;95555.76;;;;
2021/01/10 04:53:32;;;;;;;49.95;17.25;;;;;;;-6.27;83.43164;95555.76;;;;
2021/01/10 04:54:35;;;;;;;49.95;17.25;;;;;;;-6.27;83.43164;95555.76;;;;
2021/01/10 04:55:41;;;;;;;49.95;17.25;;;;;;;-6.27;83.43164;95555.76;;;;
2021/01/10 04:56:43;;;;;;;49.95;17.25;;;;;;;-6.27;83.43164;95555.76;;;;
2021/01/10 04:57:43;;;;;;;49.95;17.25;;;;;;;-6.27;83.43164;95555.76;;;;
2021/01/10 04:58:45;;;;;;;49.95;17.25;;;;;;;-6.27;83.43164;95555.76;;;;
2021/01/10 04:59:52;;;;;;;49.95;17.25;;;;;;;-6.27;83.43164;95555.76;;;;
2021/01/10 05:00:54;;;;;;;41.35;16.2;;;;;;;-6.49;83.13477;95550.98;;;;
2021/01/10 05:01:58;;;;;;;41.35;16.2;;;;;;;-6.49;83.13477;95550.98;;;;
2021/01/10 05:03:01;;;;;;;41.35;16.2;;;;;;;-6.49;83.13477;95550.98;;;;
2021/01/10 05:04:05;;;;;;;41.35;16.2;;;;;;;-6.49;83.13477;95550.98;;;;
2021/01/10 05:05:06;;;;;;;41.35;16.2;;;;;;;-6.49;83.13477;95550.98;;;;
2021/01/10 05:06:07;;;;;;;41.35;16.2;;;;;;;-6.49;83.13477;95550.98;;;;
2021/01/10 05:07:09;;;;;;;41.35;16.2;;;;;;;-6.49;83.13477;95550.98;;;;
2021/01/10 05:08:09;;;;;;;41.35;16.2;;;;;;;-6.49;83.13477;95550.98;;;;
2021/01/10 05:09:11;;;;;;;41.35;16.2;;;;;;;-6.49;83.13477;95550.98;;;;
2021/01/10 05:10:12;;;;;;;41.35;16.2;;;;;;;-6.49;83.13477;95550.98;;;;
2021/01/10 05:11:13;;;;;;;41.35;16.2;;;;;;;-6.49;83.13477;95550.98;;;;
2021/01/10 05:12:15;;;;;;;34.2;15.1;;;;;;;-6.78;83.09473;95553.04;;;;
2021/01/10 05:13:15;;;;;;;34.2;15.1;;;;;;;-6.78;83.09473;95553.04;;;;
2021/01/10 05:14:16;;;;;;;34.2;15.1;;;;;;;-6.78;83.09473;95553.04;;;;
2021/01/10 05:15:16;;;;;;;34.2;15.1;;;;;;;-6.78;83.09473;95553.04;;;;
2021/01/10 05:16:17;;;;;;;34.2;15.1;;;;;;;-6.78;83.09473;95553.04;;;;
2021/01/10 05:17:20;;;;;;;34.2;15.1;;;;;;;-6.78;83.09473;95553.04;;;;
2021/01/10 05:18:20;;;;;;;34.2;15.1;;;;;;;-6.78;83.09473;95553.04;;;;
2021/01/10 05:19:21;;;;;;;34.2;15.1;;;;;;;-6.78;83.09473;95553.04;;;;
2021/01/10 05:20:22;;;;;;;34.2;15.1;;;;;;;-6.78;83.09473;95553.04;;;;
2021/01/10 05:21:25;;;;;;;34.2;15.1;;;;;;;-6.78;83.09473;95553.04;;;;
2021/01/10 05:22:26;;;;;;;51.2;25.4;;;;;;;-7.07;83.05957;95558.91;;;;
2021/01/10 05:23:26;;;;;;;51.2;25.4;;;;;;;-7.07;83.05957;95558.91;;;;
2021/01/10 05:24:27;;;;;;;51.2;25.4;;;;;;;-7.07;83.05957;95558.91;;;;
2021/01/10 05:25:27;;;;;;;51.2;25.4;;;;;;;-7.07;83.05957;95558.91;;;;
2021/01/10 05:26:29;;;;;;;51.2;25.4;;;;;;;-7.07;83.05957;95558.91;;;;
2021/01/10 05:27:32;;;;;;;51.2;25.4;;;;;;;-7.07;83.05957;95558.91;;;;
2021/01/10 05:28:36;;;;;;;51.2;25.4;;;;;;;-7.07;83.05957;95558.91;;;;
2021/01/10 05:29:37;;;;;;;51.2;25.4;;;;;;;-7.07;83.05957;95558.91;;;;
2021/01/10 05:30:38;;;;;;;51.2;25.4;;;;;;;-7.07;83.05957;95558.91;;;;
2021/01/10 05:31:39;;;;;;;51.2;25.4;;;;;;;-7.07;83.05957;95558.91;;;;
2021/01/10 05:32:41;;;;;;;52.95001;25.45;;;;;;;-7.19;83.63867;95559.88;;;;
2021/01/10 05:33:41;;;;;;;52.95001;25.45;;;;;;;-7.19;83.63867;95559.88;;;;
2021/01/10 05:34:50;;;;;;;52.95001;25.45;;;;;;;-7.19;83.63867;95559.88;;;;
2021/01/10 05:35:58;;;;;;;52.95001;25.45;;;;;;;-7.19;83.63867;95559.88;;;;
2021/01/10 05:36:58;;;;;;;52.95001;25.45;;;;;;;-7.19;83.63867;95559.88;;;;
2021/01/10 05:38:11;;;;;;;52.95001;25.45;;;;;;;-7.19;83.63867;95559.88;;;;
2021/01/10 05:39:24;;;;;;;52.95001;25.45;;;;;;;-7.19;83.63867;95559.88;;;;
2021/01/10 05:40:26;;;;;;;52.95001;25.45;;;;;;;-7.19;83.63867;95559.88;;;;
2021/01/10 05:41:30;;;;;;;52.95001;25.45;;;;;;;-7.19;83.63867;95559.88;;;;
2021/01/10 05:42:31;;;;;;;52.95001;25.45;;;;;;;-7.19;83.63867;95559.88;;;;
2021/01/10 05:43:33;;;;;;;51.25;25.35;;;;;;;-7.03;84.01953;95556.37;;;;